CheckWX is a tool to help pilots better visualize weather data.  It is not intended as a substitute for an official pre-flight weather briefing.

20:17:37 UTC

EGDY TAF
RNAS Yeovilton Airport
Yeovil, United Kingdom
TAF EGDY 251637Z 2518/2603 35005KT 9999 SCT022 TEMPO 2518/2521 FEW022 BKN030 BECMG 2521/2523 7000 HZ SCT008 TEMPO 2523/2603 4000 BR SCT005 PROB30 TEMPO 2523/2603 SCT004

Jun-25@
18:00 UTC

Jun-25 @ 18:00 UTC

Jun-25@
21:00 UTC

Jun-25 @ 21:00 UTC

TAF EGDY 251637Z 2518/2603 35005KT 9999 SCT022
Wind
  • 350° at 5 KTS
Cloud Levels
  • Scattered at 2,200' AGL

Jun-25@
18:00 UTC

Jun-25 @ 18:00 UTC

Jun-25@
21:00 UTC

Jun-25 @ 21:00 UTC

TEMPO 2518/2521 FEW022 BKN030

Temporary

Temporary Changes expected for less than half the time period

Cloud Levels
  • Few at 2,200' AGL
  • Broken at 3,000' AGL

Jun-25@
21:00 UTC

Jun-25 @ 21:00 UTC

Jun-26@
03:00 UTC

Jun-26 @ 03:00 UTC

BECMG 2521/2523 7000 HZ SCT008

Becoming

Becoming Conditions expected by Tue, Jun 25, 2019 @ 23:00 UTC

Wind
  • 350° at 5 KTS
Conditions
Haze
Cloud Levels
  • Scattered at 800' AGL

Jun-25@
23:00 UTC

Jun-25 @ 23:00 UTC

Jun-26@
03:00 UTC

Jun-26 @ 03:00 UTC

PROB30 TEMPO 2523/2603 SCT004

Temporary - 30% Likelihood

Temporary - 30% Likelihood during this time.

Cloud Levels
  • Scattered at 400' AGL

Jun-25@
23:00 UTC

Jun-25 @ 23:00 UTC

Jun-26@
03:00 UTC

Jun-26 @ 03:00 UTC

TEMPO 2523/2603 4000 BR SCT005

Temporary

Temporary Changes expected for less than half the time period

Conditions
Mist
Cloud Levels
  • Scattered at 500' AGL